Time;durP1;ratioP1;P1;durP2;ratioP2;P2;SDS_P1;SDS_P2;PMS_P1;PMS_P2;Temp;Humidity;BMP_temperature;BMP_pressure;BME280_temperature;BME280_humidity;BME280_pressure;Samples;Min_cycle;Max_cycle;Signal;HPM_P1;HPM_P2
2022/03/13 00:01:06;;;;;;;;;;;;;;;-0.73;39.49;102045.42;1627555;87;20136;-78
2022/03/13 00:03:33;;;;;;;;;;;;;;;-0.71;39.42;102047.65;1631246;86;20161;-78
2022/03/13 00:05:59;;;;;;;;;;;;;;;-0.70;39.56;102041.38;1634576;85;20145;-78
2022/03/13 00:08:31;;;;;;;;;;;;;;;-0.69;39.48;102039.31;1625741;87;20103;-78
2022/03/13 00:11:07;;;;;;;;;;;;;;;-0.69;39.45;102035.50;1630703;87;20091;-78
2022/03/13 00:13:40;;;;;;;;;;;;;;;-0.70;39.50;102040.11;1610233;87;20144;-78
2022/03/13 00:16:10;;;;;;;;;;;;;;;-0.74;39.39;102036.94;1638394;85;20120;-78
2022/03/13 00:18:39;;;;;;;;;;;;;;;-0.79;39.42;102037.09;1638446;87;20112;-78
2022/03/13 00:21:05;;;;;;;;;;;;;;;-0.84;39.55;102029.63;1646085;87;20769;-78
2022/03/13 00:23:32;;;;;;;;;;;;;;;-0.81;39.69;102039.06;1635857;86;20241;-78
2022/03/13 00:25:57;;;;;;;;;;;;;;;-0.78;39.68;102032.48;1650918;86;20108;-77
2022/03/13 00:28:23;;;;;;;;;;;;;;;-0.76;39.59;102032.56;1639902;85;20207;-78
2022/03/13 00:30:49;;;;;;;;;;;;;;;-0.75;39.67;102033.91;1635997;86;20209;-77
2022/03/13 00:33:18;;;;;;;;;;;;;;;-0.76;39.70;102030.90;1638220;86;20131;-77
2022/03/13 00:35:44;;;;;;;;;;;;;;;-0.75;39.72;102031.77;1635754;86;20146;-77
2022/03/13 00:38:09;;;;;;;;;;;;;;;-0.74;39.78;102034.79;1647047;86;20241;-78
2022/03/13 00:40:36;;;;;;;;;;;;;;;-0.76;39.70;102034.70;1611090;87;20176;-78
2022/03/13 00:43:03;;;;;;;;;;;;;;;-0.76;39.72;102030.02;1628749;86;20091;-77
2022/03/13 00:45:29;;;;;;;;;;;;;;;-0.76;39.78;102027.09;1637017;86;20103;-77
2022/03/13 00:47:56;;;;;;;;;;;;;;;-0.78;39.74;102020.19;1642901;86;20163;-77
2022/03/13 00:50:22;;;;;;;;;;;;;;;-0.81;39.81;102027.25;1642843;86;20515;-78
2022/03/13 00:52:48;;;;;;;;;;;;;;;-0.83;39.81;102016.13;1642778;86;20535;-78
2022/03/13 00:55:15;;;;;;;;;;;;;;;-0.85;39.75;102013.03;1626059;86;20432;-78
2022/03/13 00:57:43;;;;;;;;;;;;;;;-0.86;40.06;102008.75;1625381;87;20171;-78
2022/03/13 01:00:13;;;;;;;;;;;;;;;-0.85;39.87;102007.56;1642498;86;20125;-78
2022/03/13 01:02:40;;;;;;;;;;;;;;;-0.89;39.88;102005.66;1630107;86;20133;-78
2022/03/13 01:05:10;;;;;;;;;;;;;;;-0.93;39.88;102001.60;1627851;86;20131;-79
2022/03/13 01:07:39;;;;;;;;;;;;;;;-0.97;39.91;102008.58;1616597;87;20110;-78
2022/03/13 01:10:06;;;;;;;;;;;;;;;-1.04;39.90;102008.69;1621250;86;20107;-78
2022/03/13 01:12:33;;;;;;;;;;;;;;;-1.14;39.85;102012.39;1637368;86;20125;-78
2022/03/13 01:14:58;;;;;;;;;;;;;;;-1.22;39.84;102012.77;1641676;86;20129;-79
2022/03/13 01:17:25;;;;;;;;;;;;;;;-1.31;40.07;102016.95;1639782;87;20164;-79
2022/03/13 01:19:51;;;;;;;;;;;;;;;-1.38;40.15;102006.86;1642690;86;20108;-78
2022/03/13 01:22:17;;;;;;;;;;;;;;;-1.43;40.24;102004.86;1634704;86;20178;-78
2022/03/13 01:24:44;;;;;;;;;;;;;;;-1.46;40.46;102005.97;1651026;86;20110;-78
2022/03/13 01:27:15;;;;;;;;;;;;;;;-1.48;40.44;102002.47;1663580;84;20101;-78
2022/03/13 01:29:41;;;;;;;;;;;;;;;-1.49;40.57;102010.47;1628443;86;20103;-78
2022/03/13 01:32:09;;;;;;;;;;;;;;;-1.54;40.73;102013.16;1616587;87;20406;-78
2022/03/13 01:34:38;;;;;;;;;;;;;;;-1.56;40.53;102013.46;1633001;87;20089;-79
2022/03/13 01:37:11;;;;;;;;;;;;;;;-1.59;40.60;102009.52;1631338;86;20109;-79
2022/03/13 01:39:35;;;;;;;;;;;;;;;-1.58;40.55;102009.13;1622890;86;20103;-78
2022/03/13 01:42:01;;;;;;;;;;;;;;;-1.59;40.74;102004.45;1616446;88;20110;-79
2022/03/13 01:44:27;;;;;;;;;;;;;;;-1.60;40.79;102006.50;1624646;87;20222;-78
2022/03/13 01:46:53;;;;;;;;;;;;;;;-1.60;40.70;102008.17;1641965;86;20104;-78
2022/03/13 01:49:19;;;;;;;;;;;;;;;-1.63;40.66;101996.19;1626303;86;20429;-78
2022/03/13 01:51:45;;;;;;;;;;;;;;;-1.65;40.85;101996.89;1616596;87;20114;-78
2022/03/13 01:54:14;;;;;;;;;;;;;;;-1.70;40.81;101997.91;1627402;87;20174;-78
2022/03/13 01:56:40;;;;;;;;;;;;;;;-1.69;40.92;101997.12;1638242;86;20145;-78
2022/03/13 01:59:07;;;;;;;;;;;;;;;-1.68;40.91;101997.20;1631118;86;20105;-78
2022/03/13 02:01:34;;;;;;;;;;;;;;;-1.67;40.83;101996.42;1642562;86;20133;-78
2022/03/13 02:04:00;;;;;;;;;;;;;;;-1.67;41.06;101997.69;1642763;87;20096;-77
2022/03/13 02:06:28;;;;;;;;;;;;;;;-1.64;40.96;101998.25;1642832;86;20139;-78
2022/03/13 02:08:55;;;;;;;;;;;;;;;-1.61;40.98;101998.42;1627806;86;20129;-77
2022/03/13 02:11:23;;;;;;;;;;;;;;;-1.59;41.04;101994.70;1642843;86;20129;-77
2022/03/13 02:13:51;;;;;;;;;;;;;;;-1.57;40.94;101991.45;1642864;86;20420;-77
2022/03/13 02:16:18;;;;;;;;;;;;;;;-1.58;40.97;101993.91;1630375;86;20108;-77
2022/03/13 02:18:50;;;;;;;;;;;;;;;-1.58;41.04;101999.86;1617570;86;20455;-77
2022/03/13 02:21:17;;;;;;;;;;;;;;;-1.62;40.88;102000.87;1638772;86;20105;-78
2022/03/13 02:23:43;;;;;;;;;;;;;;;-1.62;41.13;101995.41;1628166;87;20111;-78
2022/03/13 02:26:09;;;;;;;;;;;;;;;-1.58;41.18;101999.86;1616611;87;20185;-78
2022/03/13 02:28:37;;;;;;;;;;;;;;;-1.60;41.18;101994.22;1621340;87;20225;-78
2022/03/13 02:31:06;;;;;;;;;;;;;;;-1.63;41.09;101992.39;1626627;86;20111;-78
2022/03/13 02:33:32;;;;;;;;;;;;;;;-1.65;41.04;101996.89;1621814;87;20133;-78
2022/03/13 02:36:04;;;;;;;;;;;;;;;-1.67;41.26;101992.61;1622944;86;20099;-78
2022/03/13 02:38:30;;;;;;;;;;;;;;;-1.66;41.29;101993.48;1642908;86;20096;-78
2022/03/13 02:40:57;;;;;;;;;;;;;;;-1.63;41.37;101996.19;1642600;86;20132;-78
2022/03/13 02:43:23;;;;;;;;;;;;;;;-1.61;41.31;101992.47;1626076;86;20091;-78
2022/03/13 02:45:52;;;;;;;;;;;;;;;-1.60;41.38;101991.69;1642729;86;20199;-78
2022/03/13 02:48:19;;;;;;;;;;;;;;;-1.62;41.41;101994.13;1620499;86;20091;-78
2022/03/13 02:50:45;;;;;;;;;;;;;;;-1.60;41.47;101994.22;1616476;88;20573;-78
2022/03/13 02:53:10;;;;;;;;;;;;;;;-1.59;41.56;101989.23;1622450;86;20183;-78
2022/03/13 02:55:36;;;;;;;;;;;;;;;-1.57;41.50;101982.98;1639560;86;20199;-78
2022/03/13 02:58:03;;;;;;;;;;;;;;;-1.57;41.44;101981.31;1625386;87;20135;-78
2022/03/13 03:00:47;;;;;;;;;;;;;;;-1.57;41.60;101987.66;1628687;87;20297;-78
2022/03/13 03:03:14;;;;;;;;;;;;;;;-1.54;41.63;101986.91;1642584;86;20120;-78
2022/03/13 03:05:40;;;;;;;;;;;;;;;-1.53;41.42;101991.20;1634713;86;20411;-78
2022/03/13 03:08:07;;;;;;;;;;;;;;;-1.56;41.69;101990.64;1642133;86;20184;-78
2022/03/13 03:10:34;;;;;;;;;;;;;;;-1.53;41.82;101993.34;1643034;86;20132;-77
2022/03/13 03:13:00;;;;;;;;;;;;;;;-1.52;41.79;101990.02;1638992;86;20097;-78
2022/03/13 03:15:27;;;;;;;;;;;;;;;-1.51;41.73;101993.42;1636149;86;20155;-78
2022/03/13 03:17:53;;;;;;;;;;;;;;;-1.52;41.76;101987.48;1643026;86;20129;-78
2022/03/13 03:20:20;;;;;;;;;;;;;;;-1.50;41.84;101990.97;1626070;86;20135;-78
2022/03/13 03:22:47;;;;;;;;;;;;;;;-1.50;41.71;101990.09;1621834;86;20124;-78
2022/03/13 03:25:12;;;;;;;;;;;;;;;-1.50;41.88;101993.51;1622389;86;20430;-78
2022/03/13 03:27:41;;;;;;;;;;;;;;;-1.49;41.77;101994.38;1663173;86;20190;-78
2022/03/13 03:30:08;;;;;;;;;;;;;;;-1.50;41.87;101993.51;1621562;86;20132;-78
2022/03/13 03:32:34;;;;;;;;;;;;;;;-1.50;41.92;101997.70;1617045;87;20442;-78
2022/03/13 03:35:00;;;;;;;;;;;;;;;-1.50;41.83;101998.98;1621023;86;20181;-78
2022/03/13 03:37:26;;;;;;;;;;;;;;;-1.52;41.76;101994.22;1616489;87;20153;-78
2022/03/13 03:39:52;;;;;;;;;;;;;;;-1.56;41.88;101989.37;1616560;87;20170;-78
2022/03/13 03:42:18;;;;;;;;;;;;;;;-1.55;41.93;101990.23;1623269;86;20130;-79
2022/03/13 03:44:43;;;;;;;;;;;;;;;-1.56;41.92;101994.44;1604015;88;20225;-78
2022/03/13 03:47:09;;;;;;;;;;;;;;;-1.57;42.12;101986.39;1636906;86;20180;-78
2022/03/13 03:49:36;;;;;;;;;;;;;;;-1.58;42.10;101993.52;1638691;86;20460;-78
2022/03/13 03:52:02;;;;;;;;;;;;;;;-1.58;42.04;101988.84;1616471;87;20110;-78
2022/03/13 03:54:28;;;;;;;;;;;;;;;-1.58;42.13;101988.84;1616379;87;20214;-78
2022/03/13 03:56:56;;;;;;;;;;;;;;;-1.59;42.06;101985.42;1635904;86;20129;-78
2022/03/13 03:59:23;;;;;;;;;;;;;;;-1.59;42.05;101978.22;1619521;86;20174;-77
2022/03/13 04:01:49;;;;;;;;;;;;;;;-1.60;42.10;101987.48;1628711;86;20463;-78
2022/03/13 04:04:15;;;;;;;;;;;;;;;-1.60;42.15;101987.88;1622487;86;20181;-78
2022/03/13 04:06:41;;;;;;;;;;;;;;;-1.62;42.16;101990.33;1616574;86;20111;-78
2022/03/13 04:09:09;;;;;;;;;;;;;;;-1.62;42.19;101984.39;1628814;86;20150;-78
2022/03/13 04:11:35;;;;;;;;;;;;;;;-1.68;42.06;101986.19;1610647;87;20103;-77
2022/03/13 04:14:01;;;;;;;;;;;;;;;-1.75;42.08;101987.91;1616572;88;20190;-77
2022/03/13 04:16:27;;;;;;;;;;;;;;;-1.84;42.04;101993.72;1636908;87;20133;-78
2022/03/13 04:18:54;;;;;;;;;;;;;;;-1.93;42.30;101997.01;1640825;86;20703;-78
2022/03/13 04:21:20;;;;;;;;;;;;;;;-2.00;42.30;102001.73;1642651;86;20092;-78
2022/03/13 04:23:46;;;;;;;;;;;;;;;-2.05;42.45;101995.53;1642861;86;20108;-78
2022/03/13 04:26:12;;;;;;;;;;;;;;;-2.07;42.46;101997.48;1642888;86;20164;-78
2022/03/13 04:28:38;;;;;;;;;;;;;;;-2.09;42.51;101995.30;1637736;87;20173;-78
2022/03/13 04:31:05;;;;;;;;;;;;;;;-2.13;42.44;101996.78;1642045;85;20282;-78
2022/03/13 04:33:33;;;;;;;;;;;;;;;-2.12;42.62;101996.38;1635515;85;20171;-78
2022/03/13 04:36:00;;;;;;;;;;;;;;;-2.10;42.64;101997.34;1635615;86;20179;-78
2022/03/13 04:38:27;;;;;;;;;;;;;;;-2.08;42.67;101999.15;1640117;85;20138;-77
2022/03/13 04:40:55;;;;;;;;;;;;;;;-2.07;42.73;101998.36;1624022;87;20186;-78
2022/03/13 04:43:22;;;;;;;;;;;;;;;-2.08;42.65;102000.84;1628897;85;20514;-78
2022/03/13 04:45:48;;;;;;;;;;;;;;;-2.06;42.70;102004.30;1626037;87;20190;-78
2022/03/13 04:48:15;;;;;;;;;;;;;;;-2.07;42.62;102003.43;1645438;85;20140;-78
2022/03/13 04:50:41;;;;;;;;;;;;;;;-2.06;42.71;102005.18;1628821;87;20529;-77
2022/03/13 04:53:07;;;;;;;;;;;;;;;-2.04;42.72;102013.74;1644826;85;21737;-77
2022/03/13 04:55:33;;;;;;;;;;;;;;;-2.01;42.75;102010.52;1619312;86;20465;-78
2022/03/13 04:57:59;;;;;;;;;;;;;;;-2.02;42.68;102012.17;1618506;87;20240;-78
2022/03/13 05:00:27;;;;;;;;;;;;;;;-2.02;42.76;102012.17;1618510;87;20234;-78
2022/03/13 05:02:54;;;;;;;;;;;;;;;-2.00;42.86;102014.80;1633113;85;20540;-78
2022/03/13 05:05:21;;;;;;;;;;;;;;;-1.99;42.96;102010.20;1632460;87;20123;-78
2022/03/13 05:07:47;;;;;;;;;;;;;;;-1.97;42.98;102012.83;1634009;87;20115;-78
2022/03/13 05:10:13;;;;;;;;;;;;;;;-1.96;42.93;102014.58;1628018;86;20188;-78
2022/03/13 05:12:39;;;;;;;;;;;;;;;-1.97;42.90;102011.17;1635692;85;20133;-78
2022/03/13 05:15:05;;;;;;;;;;;;;;;-1.94;42.95;102021.48;1647217;87;20096;-77
2022/03/13 05:17:31;;;;;;;;;;;;;;;-1.92;42.98;102024.10;1646581;87;20088;-77
2022/03/13 05:19:57;;;;;;;;;;;;;;;-1.93;42.99;102018.16;1645029;85;20175;-77
2022/03/13 05:22:23;;;;;;;;;;;;;;;-1.93;42.97;102021.09;1647437;85;20129;-77
2022/03/13 05:24:49;;;;;;;;;;;;;;;-1.93;43.00;102026.16;1635464;85;20132;-77
2022/03/13 05:27:15;;;;;;;;;;;;;;;-1.93;43.01;102021.96;1644362;86;20163;-78
2022/03/13 05:29:40;;;;;;;;;;;;;;;-1.91;43.10;102024.19;1630275;86;20179;-78
2022/03/13 05:32:07;;;;;;;;;;;;;;;-1.89;43.05;102034.02;1640994;86;20148;-78
2022/03/13 05:34:34;;;;;;;;;;;;;;;-1.90;43.07;102028.87;1639122;86;20465;-78
2022/03/13 05:37:00;;;;;;;;;;;;;;;-1.88;43.10;102035.77;1635268;86;20171;-77
2022/03/13 05:39:26;;;;;;;;;;;;;;;-1.86;43.24;102034.59;1607692;88;20779;-78
2022/03/13 05:41:53;;;;;;;;;;;;;;;-1.84;43.25;102036.42;1620294;88;20822;-77
2022/03/13 05:44:19;;;;;;;;;;;;;;;-1.80;43.22;102034.55;1615124;86;20473;-77
2022/03/13 05:46:45;;;;;;;;;;;;;;;-1.75;43.26;102036.95;1689833;82;20118;-77
2022/03/13 05:49:11;;;;;;;;;;;;;;;-1.69;43.39;102033.89;1635028;87;20261;-77
2022/03/13 05:51:37;;;;;;;;;;;;;;;-1.62;43.28;102035.98;1634448;85;20805;-77
2022/03/13 05:54:06;;;;;;;;;;;;;;;-1.56;43.52;102029.95;1650155;85;20267;-77
2022/03/13 05:56:32;;;;;;;;;;;;;;;-1.46;43.45;102036.41;1644140;85;20238;-77
2022/03/13 05:58:58;;;;;;;;;;;;;;;-1.35;43.36;102037.88;1653935;85;20259;-77
2022/03/13 06:01:24;;;;;;;;;;;;;;;-1.21;43.46;102036.96;1645771;85;20913;-77
2022/03/13 06:03:50;;;;;;;;;;;;;;;-1.04;43.58;102035.34;1645404;85;20911;-77
2022/03/13 06:06:16;;;;;;;;;;;;;;;-0.86;43.67;102037.55;1631252;87;20971;-77
2022/03/13 06:08:42;;;;;;;;;;;;;;;-0.62;43.75;102035.83;1631593;86;20162;-77
2022/03/13 06:11:08;;;;;;;;;;;;;;;-0.34;43.70;102038.96;1710342;82;20186;-77
2022/03/13 06:13:34;;;;;;;;;;;;;;;-0.05;43.72;102036.22;1705622;82;20187;-77
2022/03/13 06:16:00;;;;;;;;;;;;;;;0.27;43.86;102031.81;1702872;82;20463;-77
2022/03/13 06:18:27;;;;;;;;;;;;;;;0.60;43.68;102038.48;1694418;82;20434;-77
2022/03/13 06:20:53;;;;;;;;;;;;;;;0.90;43.77;102039.44;1703765;82;20177;-77
2022/03/13 06:23:19;;;;;;;;;;;;;;;1.21;43.80;102037.45;1700686;82;20111;-78
2022/03/13 06:25:45;;;;;;;;;;;;;;;1.50;43.63;102042.97;1660458;85;20509;-78
2022/03/13 06:28:13;;;;;;;;;;;;;;;1.78;43.75;102037.34;1656109;84;20630;-78
2022/03/13 06:30:39;;;;;;;;;;;;;;;2.06;43.64;102041.94;1661901;85;20733;-78
2022/03/13 06:33:05;;;;;;;;;;;;;;;2.33;43.63;102046.45;1705263;84;20189;-78
2022/03/13 06:35:32;;;;;;;;;;;;;;;2.59;43.65;102050.05;1689616;82;20132;-78
2022/03/13 06:37:58;;;;;;;;;;;;;;;2.88;43.68;102052.83;1703203;82;20443;-79
2022/03/13 06:40:25;;;;;;;;;;;;;;;3.14;43.72;102055.06;1656305;85;20479;-78
2022/03/13 06:42:53;;;;;;;;;;;;;;;3.43;43.75;102053.58;1658374;85;20186;-78
2022/03/13 06:45:19;;;;;;;;;;;;;;;3.68;43.60;102047.63;1663743;85;20129;-78
2022/03/13 06:47:55;;;;;;;;;;;;;;;3.89;43.57;102049.23;1638411;84;20774;-78
2022/03/13 06:50:15;;;;;;;;;;;;;;;4.10;43.61;102048.23;1651542;86;20143;-78
2022/03/13 06:52:42;;;;;;;;;;;;;;;4.29;43.63;102051.41;1652664;86;20443;-78
2022/03/13 06:55:09;;;;;;;;;;;;;;;4.54;43.49;102049.64;1653447;86;20443;-78
2022/03/13 06:57:34;;;;;;;;;;;;;;;4.78;43.71;102046.53;1643816;86;20138;-79
2022/03/13 07:00:02;;;;;;;;;;;;;;;5.08;43.66;102048.28;1652139;86;20706;-79
2022/03/13 07:02:27;;;;;;;;;;;;;;;5.40;43.89;102050.05;1652639;86;20120;-79
2022/03/13 07:04:53;;;;;;;;;;;;;;;5.77;43.73;102038.19;1653146;86;20444;-79
2022/03/13 07:07:19;;;;;;;;;;;;;;;5.98;43.57;102037.09;1651336;86;20180;-79
2022/03/13 07:09:45;;;;;;;;;;;;;;;6.08;43.57;102034.75;1650144;86;20722;-79
2022/03/13 07:12:12;;;;;;;;;;;;;;;6.32;43.60;102039.18;1653508;86;20221;-79
2022/03/13 07:14:40;;;;;;;;;;;;;;;6.57;43.49;102043.20;1650441;86;20113;-79
2022/03/13 07:17:06;;;;;;;;;;;;;;;6.71;43.54;102044.39;1644427;84;21038;-79
2022/03/13 07:19:34;;;;;;;;;;;;;;;6.92;43.58;102035.84;1641557;86;20420;-79
2022/03/13 07:21:59;;;;;;;;;;;;;;;7.13;43.61;102041.00;1630838;86;20503;-79
2022/03/13 07:24:25;;;;;;;;;;;;;;;7.33;43.45;102040.09;1639413;86;20140;-79
2022/03/13 07:26:51;;;;;;;;;;;;;;;7.52;43.67;102037.05;1645140;86;20926;-79
2022/03/13 07:29:17;;;;;;;;;;;;;;;7.74;43.64;102037.91;1613800;86;20146;-79
2022/03/13 07:31:42;;;;;;;;;;;;;;;7.90;43.60;102035.16;1629405;86;20285;-79
2022/03/13 07:34:08;;;;;;;;;;;;;;;8.14;43.68;102035.58;1632623;86;20239;-79
2022/03/13 07:36:37;;;;;;;;;;;;;;;8.42;43.49;102034.73;1636561;86;20200;-79
2022/03/13 07:39:03;;;;;;;;;;;;;;;8.69;43.63;102040.73;1639201;86;20201;-79
2022/03/13 07:41:29;;;;;;;;;;;;;;;8.92;43.47;102038.90;1637002;86;20622;-79
2022/03/13 07:43:55;;;;;;;;;;;;;;;9.15;43.56;102039.63;1633145;86;20166;-79
2022/03/13 07:46:21;;;;;;;;;;;;;;;9.22;43.68;102045.31;1702732;82;20316;-79
2022/03/13 07:48:47;;;;;;;;;;;;;;;9.34;43.46;102036.85;1701688;82;20208;-79
2022/03/13 07:51:13;;;;;;;;;;;;;;;9.59;43.39;102039.70;1659930;85;20250;-79
2022/03/13 07:53:39;;;;;;;;;;;;;;;9.88;43.55;102036.53;1699634;82;20147;-79
2022/03/13 07:56:05;;;;;;;;;;;;;;;10.01;43.62;102036.22;1659749;85;20128;-81
2022/03/13 07:58:32;;;;;;;;;;;;;;;10.06;43.81;102034.11;1660115;85;20738;-81
2022/03/13 08:00:58;;;;;;;;;;;;;;;10.19;43.67;102038.97;1660237;85;20535;-80
2022/03/13 08:03:34;;;;;;;;;;;;;;;10.14;43.33;102032.46;1642277;85;20245;-80
2022/03/13 08:05:52;;;;;;;;;;;;;;;10.03;44.04;102037.96;1658425;85;20140;-78
2022/03/13 08:08:18;;;;;;;;;;;;;;;9.93;43.75;102034.42;1663097;85;20130;-80
2022/03/13 08:10:45;;;;;;;;;;;;;;;9.93;43.78;102031.84;1663003;85;20156;-81
2022/03/13 08:13:11;;;;;;;;;;;;;;;9.96;43.38;102037.47;1689345;82;20678;-77
2022/03/13 08:15:38;;;;;;;;;;;;;;;9.83;43.29;102031.77;1699779;82;20445;-77
2022/03/13 08:18:04;;;;;;;;;;;;;;;9.59;43.05;102039.70;1702327;82;20095;-78
2022/03/13 08:20:30;;;;;;;;;;;;;;;9.46;43.37;102044.28;1660868;85;20140;-78
2022/03/13 08:22:56;;;;;;;;;;;;;;;9.50;43.08;102042.19;1660225;86;20214;-78
2022/03/13 08:25:24;;;;;;;;;;;;;;;9.52;42.79;102031.88;1652615;85;20217;-78
2022/03/13 08:27:49;;;;;;;;;;;;;;;9.54;40.24;102038.78;1661832;85;20148;-78
2022/03/13 08:30:15;;;;;;;;;;;;;;;9.45;42.34;102036.52;1653385;85;20157;-78
2022/03/13 08:32:41;;;;;;;;;;;;;;;9.42;42.72;102034.77;1637199;86;20171;-78
2022/03/13 08:35:08;;;;;;;;;;;;;;;9.41;42.70;102039.92;1642885;86;20236;-78
2022/03/13 08:37:34;;;;;;;;;;;;;;;9.38;42.73;102041.17;1661301;86;20152;-78
2022/03/13 08:40:00;;;;;;;;;;;;;;;9.36;42.50;102038.58;1664229;85;20123;-78
2022/03/13 08:42:26;;;;;;;;;;;;;;;9.29;42.14;102038.09;1639623;85;20143;-78
2022/03/13 08:44:52;;;;;;;;;;;;;;;9.23;42.24;102049.63;1637172;87;20237;-78
2022/03/13 08:47:18;;;;;;;;;;;;;;;9.09;42.02;102040.42;1657533;86;20234;-78
2022/03/13 08:49:44;;;;;;;;;;;;;;;9.02;42.05;102037.73;1650152;85;20732;-78
2022/03/13 08:52:10;;;;;;;;;;;;;;;8.92;41.78;102035.45;1661466;86;20242;-78
2022/03/13 08:54:35;;;;;;;;;;;;;;;8.86;41.85;102038.81;1657872;86;20177;-78
2022/03/13 08:57:02;;;;;;;;;;;;;;;8.75;41.53;102039.55;1643115;84;20213;-78
2022/03/13 08:59:30;;;;;;;;;;;;;;;8.61;41.23;102045.36;1637461;87;20159;-78
2022/03/13 09:01:56;;;;;;;;;;;;;;;8.42;40.68;102039.89;1650579;86;20144;-78
2022/03/13 09:04:21;;;;;;;;;;;;;;;8.30;40.94;102040.14;1664493;85;20183;-78
2022/03/13 09:06:49;;;;;;;;;;;;;;;8.21;41.10;102035.27;1655384;85;20166;-77
2022/03/13 09:09:15;;;;;;;;;;;;;;;8.11;40.30;102041.97;1663240;86;20140;-77
2022/03/13 09:11:41;;;;;;;;;;;;;;;8.02;40.40;102037.08;1662534;85;20218;-77
2022/03/13 09:14:06;;;;;;;;;;;;;;;7.93;40.56;102028.34;1662776;85;20206;-77
2022/03/13 09:16:38;;;;;;;;;;;;;;;7.89;40.36;102030.84;1659056;85;20161;-77
2022/03/13 09:19:00;;;;;;;;;;;;;;;7.88;40.25;102031.27;1662716;86;20139;-77
2022/03/13 09:21:26;;;;;;;;;;;;;;;7.90;39.74;102029.58;1642614;86;20187;-77
2022/03/13 09:23:52;;;;;;;;;;;;;;;7.86;40.25;102034.23;1660452;86;20201;-77
2022/03/13 09:26:18;;;;;;;;;;;;;;;7.86;40.20;102032.08;1663234;85;20525;-77
2022/03/13 09:28:43;;;;;;;;;;;;;;;7.87;39.49;102034.67;1663451;86;20186;-77
2022/03/13 09:31:10;;;;;;;;;;;;;;;7.88;39.92;102032.97;1661236;86;20214;-77
2022/03/13 09:33:36;;;;;;;;;;;;;;;7.93;39.86;102038.65;1635921;87;20450;-78
2022/03/13 09:36:02;;;;;;;;;;;;;;;7.96;39.52;102033.55;1635411;87;20257;-78
2022/03/13 09:38:27;;;;;;;;;;;;;;;8.00;39.74;102030.61;1625191;87;20763;-77
2022/03/13 09:40:54;;;;;;;;;;;;;;;8.05;39.66;102035.42;1638241;87;20219;-77
2022/03/13 09:43:21;;;;;;;;;;;;;;;8.07;38.87;102028.59;1634268;87;20165;-77
2022/03/13 09:45:49;;;;;;;;;;;;;;;8.12;39.28;102030.82;1649871;85;20096;-77
2022/03/13 09:48:18;;;;;;;;;;;;;;;8.18;39.45;102032.21;1644694;85;20100;-77
2022/03/13 09:50:44;;;;;;;;;;;;;;;8.25;39.21;102031.89;1633505;86;20139;-77
2022/03/13 09:53:16;;;;;;;;;;;;;;;8.30;39.28;102028.55;1647386;85;20108;-77
2022/03/13 09:55:41;;;;;;;;;;;;;;;8.38;39.34;102033.83;1650648;87;20400;-77
2022/03/13 09:58:08;;;;;;;;;;;;;;;8.44;39.23;102036.92;1645574;85;20767;-77
2022/03/13 10:00:36;;;;;;;;;;;;;;;8.47;38.62;102028.81;1646949;85;20108;-77
2022/03/13 10:03:08;;;;;;;;;;;;;;;8.51;39.04;102029.30;1649901;85;20104;-77
2022/03/13 10:05:45;;;;;;;;;;;;;;;8.58;39.06;102032.84;1645512;85;20152;-77
2022/03/13 10:08:12;;;;;;;;;;;;;;;8.66;38.72;102032.95;1646250;87;20215;-75
2022/03/13 10:10:49;;;;;;;;;;;;;;;8.70;38.79;102033.45;1648032;87;20201;-75
2022/03/13 10:13:19;;;;;;;;;;;;;;;8.72;38.53;102032.63;1628774;87;20201;-75
2022/03/13 10:15:49;;;;;;;;;;;;;;;8.75;38.76;102028.80;1634016;87;20175;-75
2022/03/13 10:18:18;;;;;;;;;;;;;;;8.76;38.51;102027.95;1649052;87;20195;-76
2022/03/13 10:20:45;;;;;;;;;;;;;;;8.80;38.82;102022.42;1632763;87;20214;-76
2022/03/13 10:23:15;;;;;;;;;;;;;;;8.85;38.74;102030.63;1627742;87;20210;-76
2022/03/13 10:25:41;;;;;;;;;;;;;;;8.91;38.34;102029.84;1628619;87;20178;-76
2022/03/13 10:28:25;;;;;;;;;;;;;;;8.95;37.97;102012.28;1640411;86;20176;-76
2022/03/13 10:31:02;;;;;;;;;;;;;;;9.02;38.35;102026.99;1644972;86;20588;-78
2022/03/13 10:33:44;;;;;;;;;;;;;;;9.07;38.26;102022.76;1637440;87;20183;-77
2022/03/13 10:36:14;;;;;;;;;;;;;;;9.10;38.27;102023.22;1633963;85;20402;-77
2022/03/13 10:38:41;;;;;;;;;;;;;;;9.10;37.99;102014.19;1632941;86;20204;-77
2022/03/13 10:41:08;;;;;;;;;;;;;;;9.16;38.25;102009.97;1633542;86;20204;-77
2022/03/13 10:43:54;;;;;;;;;;;;;;;9.22;38.06;102019.50;1624676;87;20141;-78
2022/03/13 10:46:32;;;;;;;;;;;;;;;9.25;37.48;102020.83;1634998;87;20105;-78
2022/03/13 10:49:00;;;;;;;;;;;;;;;9.27;37.94;102021.72;1639292;86;20166;-78
2022/03/13 10:51:48;;;;;;;;;;;;;;;9.28;37.87;102022.16;1642113;86;20088;-78
2022/03/13 10:54:31;;;;;;;;;;;;;;;9.28;37.73;102015.28;1620004;87;20156;-77
2022/03/13 10:57:09;;;;;;;;;;;;;;;9.31;37.50;102014.45;1629592;87;20109;-77
2022/03/13 10:59:35;;;;;;;;;;;;;;;9.37;37.55;102013.63;1628408;86;20096;-78
2022/03/13 11:02:22;;;;;;;;;;;;;;;9.42;37.45;102012.83;1636585;86;20141;-78
2022/03/13 11:04:52;;;;;;;;;;;;;;;9.47;37.24;102014.17;1640814;86;20131;-78
2022/03/13 11:07:21;;;;;;;;;;;;;;;9.47;37.41;102005.13;1641271;87;20112;-77
2022/03/13 11:09:47;;;;;;;;;;;;;;;9.50;37.21;102002.59;1636542;84;20154;-77
2022/03/13 11:12:20;;;;;;;;;;;;;;;9.52;37.40;102003.47;1528886;84;10000378;-77
2022/03/13 11:14:53;;;;;;;;;;;;;;;9.55;37.18;102006.08;1639962;87;20157;-78
2022/03/13 11:17:21;;;;;;;;;;;;;;;9.67;37.46;102011.38;1638931;86;20144;-78
2022/03/13 11:19:51;;;;;;;;;;;;;;;9.74;37.31;102004.55;1638553;86;20606;-78
2022/03/13 11:22:20;;;;;;;;;;;;;;;9.77;36.83;102006.75;1633560;86;20101;-78
2022/03/13 11:24:48;;;;;;;;;;;;;;;9.80;36.96;102005.48;1640938;86;20157;-78
2022/03/13 11:27:15;;;;;;;;;;;;;;;9.82;37.12;102001.62;1627893;87;33232;-78
2022/03/13 11:29:50;;;;;;;;;;;;;;;9.87;37.06;102000.81;1641058;86;20176;-78
2022/03/13 11:32:46;;;;;;;;;;;;;;;9.91;36.64;102002.54;1631079;86;20180;-78
2022/03/13 11:35:17;;;;;;;;;;;;;;;9.91;36.76;101989.63;1629380;87;20111;-77
2022/03/13 11:38:02;;;;;;;;;;;;;;;9.91;36.88;101988.76;1628358;87;20123;-77
2022/03/13 11:40:34;;;;;;;;;;;;;;;9.98;36.75;101989.67;1629945;86;20121;-77
2022/03/13 11:43:12;;;;;;;;;;;;;;;10.03;36.83;101985.41;1615786;88;20135;-78
2022/03/13 11:45:39;;;;;;;;;;;;;;;10.04;36.82;101984.13;1636146;87;20133;-78
2022/03/13 11:48:09;;;;;;;;;;;;;;;10.11;36.18;101994.09;1636362;87;20156;-78
2022/03/13 11:50:58;;;;;;;;;;;;;;;10.13;36.38;101990.67;1637035;87;20108;-77
2022/03/13 11:53:40;;;;;;;;;;;;;;;10.16;36.58;101984.66;1611597;88;20452;-76
2022/03/13 11:56:09;;;;;;;;;;;;;;;10.23;36.20;101989.92;1687152;84;20163;-77
2022/03/13 11:58:46;;;;;;;;;;;;;;;10.27;36.16;101986.93;1696359;82;20215;-77
2022/03/13 12:01:20;;;;;;;;;;;;;;;10.27;36.35;101990.38;1701193;84;20177;-77
2022/03/13 12:04:15;;;;;;;;;;;;;;;10.25;35.88;101977.88;1697128;83;20132;-77
2022/03/13 12:06:44;;;;;;;;;;;;;;;10.27;35.68;101986.50;1695506;84;20196;-77
2022/03/13 12:09:13;;;;;;;;;;;;;;;10.28;36.03;101981.77;1691556;84;20132;-77
2022/03/13 12:11:42;;;;;;;;;;;;;;;10.27;35.69;101978.75;1699069;84;20165;-77
2022/03/13 12:14:10;;;;;;;;;;;;;;;10.30;35.95;101974.03;1697665;84;20137;-77
2022/03/13 12:16:37;;;;;;;;;;;;;;;10.36;35.91;101980.53;1698122;84;20626;-77
2022/03/13 12:19:04;;;;;;;;;;;;;;;10.42;36.14;101977.95;1701510;84;20133;-77
2022/03/13 12:21:30;;;;;;;;;;;;;;;10.46;35.55;101977.55;1701196;84;20121;-76
2022/03/13 12:24:14;;;;;;;;;;;;;;;10.49;35.71;101972.40;1709728;82;20132;-76
2022/03/13 12:26:41;;;;;;;;;;;;;;;10.49;35.28;101972.40;1701235;84;20153;-76
2022/03/13 12:29:08;;;;;;;;;;;;;;;10.53;35.81;101967.68;1696796;82;20165;-77
2022/03/13 12:31:42;;;;;;;;;;;;;;;10.50;35.28;101961.20;1686372;83;20154;-77
2022/03/13 12:34:08;;;;;;;;;;;;;;;10.49;34.51;101960.77;1699795;82;20107;-77
2022/03/13 12:36:36;;;;;;;;;;;;;;;10.47;35.27;101960.75;1658266;84;20110;-77
2022/03/13 12:39:10;;;;;;;;;;;;;;;10.42;34.43;101956.41;1660207;84;20194;-77
2022/03/13 12:41:36;;;;;;;;;;;;;;;10.43;35.18;101954.26;1662430;84;20170;-76
2022/03/13 12:44:04;;;;;;;;;;;;;;;10.41;34.73;101959.42;1661194;84;20162;-77